sensor_id;sensor_type;location;lat;lon;timestamp;P1;durP1;ratioP1;P2;durP2;ratioP2
29934;SDS011;19905;53.370;-6.314;2024-02-15T00:00:06;1.13;;;0.90;;
29934;SDS011;19905;53.370;-6.314;2024-02-15T00:02:36;1.83;;;0.80;;
29934;SDS011;19905;53.370;-6.314;2024-02-15T00:05:06;2.83;;;0.80;;
29934;SDS011;19905;53.370;-6.314;2024-02-15T00:07:35;2.30;;;0.70;;
29934;SDS011;19905;53.370;-6.314;2024-02-15T00:10:03;1.40;;;0.73;;
29934;SDS011;19905;53.370;-6.314;2024-02-15T00:12:32;1.73;;;0.70;;
29934;SDS011;19905;53.370;-6.314;2024-02-15T00:15:01;2.50;;;0.80;;
29934;SDS011;19905;53.370;-6.314;2024-02-15T00:17:30;1.90;;;0.80;;
29934;SDS011;19905;53.370;-6.314;2024-02-15T00:20:01;2.33;;;0.85;;
29934;SDS011;19905;53.370;-6.314;2024-02-15T00:22:30;2.00;;;0.80;;
29934;SDS011;19905;53.370;-6.314;2024-02-15T00:25:00;3.15;;;0.90;;
29934;SDS011;19905;53.370;-6.314;2024-02-15T00:27:29;2.47;;;0.77;;
29934;SDS011;19905;53.370;-6.314;2024-02-15T00:29:59;1.30;;;0.65;;
29934;SDS011;19905;53.370;-6.314;2024-02-15T00:32:28;2.58;;;0.70;;
29934;SDS011;19905;53.370;-6.314;2024-02-15T00:34:56;2.97;;;0.80;;
29934;SDS011;19905;53.370;-6.314;2024-02-15T00:37:27;1.17;;;0.60;;
29934;SDS011;19905;53.370;-6.314;2024-02-15T00:39:55;0.65;;;0.45;;
29934;SDS011;19905;53.370;-6.314;2024-02-15T00:42:23;1.48;;;0.70;;
29934;SDS011;19905;53.370;-6.314;2024-02-15T00:44:52;1.83;;;0.80;;
29934;SDS011;19905;53.370;-6.314;2024-02-15T00:47:20;2.20;;;0.70;;
29934;SDS011;19905;53.370;-6.314;2024-02-15T00:49:49;2.17;;;0.80;;
29934;SDS011;19905;53.370;-6.314;2024-02-15T00:52:17;2.03;;;0.60;;
29934;SDS011;19905;53.370;-6.314;2024-02-15T00:54:47;0.60;;;0.50;;
29934;SDS011;19905;53.370;-6.314;2024-02-15T00:57:15;1.50;;;0.73;;
29934;SDS011;19905;53.370;-6.314;2024-02-15T00:59:44;2.40;;;0.75;;
29934;SDS011;19905;53.370;-6.314;2024-02-15T01:02:12;3.17;;;1.00;;
29934;SDS011;19905;53.370;-6.314;2024-02-15T01:04:41;0.90;;;0.65;;
29934;SDS011;19905;53.370;-6.314;2024-02-15T01:07:09;2.22;;;0.77;;
29934;SDS011;19905;53.370;-6.314;2024-02-15T01:09:37;3.50;;;0.70;;
29934;SDS011;19905;53.370;-6.314;2024-02-15T01:12:08;1.35;;;0.65;;
29934;SDS011;19905;53.370;-6.314;2024-02-15T01:14:37;2.42;;;0.80;;
29934;SDS011;19905;53.370;-6.314;2024-02-15T01:17:06;1.98;;;0.70;;
29934;SDS011;19905;53.370;-6.314;2024-02-15T01:19:34;3.28;;;0.88;;
29934;SDS011;19905;53.370;-6.314;2024-02-15T01:22:02;2.25;;;0.70;;
29934;SDS011;19905;53.370;-6.314;2024-02-15T01:24:32;3.08;;;0.88;;
29934;SDS011;19905;53.370;-6.314;2024-02-15T01:27:01;4.30;;;1.00;;
29934;SDS011;19905;53.370;-6.314;2024-02-15T01:29:31;4.32;;;1.00;;
29934;SDS011;19905;53.370;-6.314;2024-02-15T01:31:59;10.32;;;1.85;;
29934;SDS011;19905;53.370;-6.314;2024-02-15T01:34:28;8.40;;;2.10;;
29934;SDS011;19905;53.370;-6.314;2024-02-15T01:36:56;8.90;;;1.67;;
29934;SDS011;19905;53.370;-6.314;2024-02-15T01:39:25;10.65;;;2.13;;
29934;SDS011;19905;53.370;-6.314;2024-02-15T01:41:53;10.18;;;1.77;;
29934;SDS011;19905;53.370;-6.314;2024-02-15T01:44:23;7.68;;;1.75;;
29934;SDS011;19905;53.370;-6.314;2024-02-15T01:46:53;8.27;;;1.58;;
29934;SDS011;19905;53.370;-6.314;2024-02-15T01:49:21;8.13;;;1.70;;
29934;SDS011;19905;53.370;-6.314;2024-02-15T01:51:50;9.15;;;1.42;;
29934;SDS011;19905;53.370;-6.314;2024-02-15T01:54:19;10.98;;;1.60;;
29934;SDS011;19905;53.370;-6.314;2024-02-15T01:56:48;8.57;;;1.77;;
29934;SDS011;19905;53.370;-6.314;2024-02-15T01:59:16;9.07;;;1.63;;
29934;SDS011;19905;53.370;-6.314;2024-02-15T02:01:45;8.20;;;1.42;;
29934;SDS011;19905;53.370;-6.314;2024-02-15T02:04:15;7.32;;;1.80;;
29934;SDS011;19905;53.370;-6.314;2024-02-15T02:06:46;11.13;;;1.67;;
29934;SDS011;19905;53.370;-6.314;2024-02-15T02:09:14;9.77;;;1.50;;
29934;SDS011;19905;53.370;-6.314;2024-02-15T02:11:44;7.30;;;1.50;;
29934;SDS011;19905;53.370;-6.314;2024-02-15T02:14:13;11.88;;;1.65;;
29934;SDS011;19905;53.370;-6.314;2024-02-15T02:16:41;11.25;;;1.92;;
29934;SDS011;19905;53.370;-6.314;2024-02-15T02:19:09;7.45;;;1.48;;
29934;SDS011;19905;53.370;-6.314;2024-02-15T02:21:39;11.10;;;1.50;;
29934;SDS011;19905;53.370;-6.314;2024-02-15T02:24:11;8.25;;;1.38;;
29934;SDS011;19905;53.370;-6.314;2024-02-15T02:26:43;7.18;;;1.48;;
29934;SDS011;19905;53.370;-6.314;2024-02-15T02:29:12;11.30;;;1.70;;
29934;SDS011;19905;53.370;-6.314;2024-02-15T02:31:41;5.53;;;1.15;;
29934;SDS011;19905;53.370;-6.314;2024-02-15T02:34:10;10.48;;;1.70;;
29934;SDS011;19905;53.370;-6.314;2024-02-15T02:36:43;9.43;;;1.20;;
29934;SDS011;19905;53.370;-6.314;2024-02-15T02:39:12;7.95;;;1.38;;
29934;SDS011;19905;53.370;-6.314;2024-02-15T02:41:41;7.55;;;1.55;;
29934;SDS011;19905;53.370;-6.314;2024-02-15T02:44:11;4.53;;;1.10;;
29934;SDS011;19905;53.370;-6.314;2024-02-15T02:46:41;5.28;;;1.00;;
29934;SDS011;19905;53.370;-6.314;2024-02-15T02:49:10;3.47;;;0.80;;
29934;SDS011;19905;53.370;-6.314;2024-02-15T02:51:39;5.47;;;1.02;;
29934;SDS011;19905;53.370;-6.314;2024-02-15T02:54:07;5.07;;;0.90;;
29934;SDS011;19905;53.370;-6.314;2024-02-15T02:56:35;5.15;;;1.00;;
29934;SDS011;19905;53.370;-6.314;2024-02-15T02:59:04;1.95;;;0.70;;
29934;SDS011;19905;53.370;-6.314;2024-02-15T03:01:35;3.45;;;0.85;;
29934;SDS011;19905;53.370;-6.314;2024-02-15T03:04:03;1.20;;;0.60;;
29934;SDS011;19905;53.370;-6.314;2024-02-15T03:06:32;3.20;;;0.80;;
29934;SDS011;19905;53.370;-6.314;2024-02-15T03:09:00;2.80;;;0.60;;
29934;SDS011;19905;53.370;-6.314;2024-02-15T03:11:34;1.02;;;0.50;;
29934;SDS011;19905;53.370;-6.314;2024-02-15T03:14:03;2.10;;;0.50;;
29934;SDS011;19905;53.370;-6.314;2024-02-15T03:16:32;4.07;;;0.80;;
29934;SDS011;19905;53.370;-6.314;2024-02-15T03:19:02;1.58;;;0.60;;
29934;SDS011;19905;53.370;-6.314;2024-02-15T03:21:31;1.08;;;0.43;;
29934;SDS011;19905;53.370;-6.314;2024-02-15T03:23:59;2.83;;;0.60;;
29934;SDS011;19905;53.370;-6.314;2024-02-15T03:26:30;2.28;;;0.60;;
29934;SDS011;19905;53.370;-6.314;2024-02-15T03:29:04;1.33;;;0.50;;
29934;SDS011;19905;53.370;-6.314;2024-02-15T03:31:34;4.03;;;0.80;;
29934;SDS011;19905;53.370;-6.314;2024-02-15T03:34:06;2.35;;;0.98;;
29934;SDS011;19905;53.370;-6.314;2024-02-15T03:36:34;1.25;;;0.88;;
29934;SDS011;19905;53.370;-6.314;2024-02-15T03:39:02;1.00;;;0.65;;
29934;SDS011;19905;53.370;-6.314;2024-02-15T03:41:33;2.65;;;0.77;;
29934;SDS011;19905;53.370;-6.314;2024-02-15T03:44:01;1.92;;;0.60;;
29934;SDS011;19905;53.370;-6.314;2024-02-15T03:46:30;2.40;;;0.90;;
29934;SDS011;19905;53.370;-6.314;2024-02-15T03:48:59;2.45;;;0.90;;
29934;SDS011;19905;53.370;-6.314;2024-02-15T03:51:28;3.08;;;1.10;;
29934;SDS011;19905;53.370;-6.314;2024-02-15T03:53:56;1.73;;;1.20;;
29934;SDS011;19905;53.370;-6.314;2024-02-15T03:56:25;2.97;;;1.17;;
29934;SDS011;19905;53.370;-6.314;2024-02-15T03:58:54;2.33;;;0.80;;
29934;SDS011;19905;53.370;-6.314;2024-02-15T04:01:24;2.15;;;0.77;;
29934;SDS011;19905;53.370;-6.314;2024-02-15T04:03:54;4.95;;;0.60;;
29934;SDS011;19905;53.370;-6.314;2024-02-15T04:06:22;3.60;;;0.70;;
29934;SDS011;19905;53.370;-6.314;2024-02-15T04:08:53;1.95;;;0.75;;
29934;SDS011;19905;53.370;-6.314;2024-02-15T04:11:22;2.38;;;0.95;;
29934;SDS011;19905;53.370;-6.314;2024-02-15T04:13:50;2.17;;;0.52;;
29934;SDS011;19905;53.370;-6.314;2024-02-15T04:16:18;0.90;;;0.55;;
29934;SDS011;19905;53.370;-6.314;2024-02-15T04:18:47;1.75;;;0.47;;
29934;SDS011;19905;53.370;-6.314;2024-02-15T04:21:15;3.13;;;0.75;;
29934;SDS011;19905;53.370;-6.314;2024-02-15T04:23:43;2.13;;;0.70;;
29934;SDS011;19905;53.370;-6.314;2024-02-15T04:26:13;2.53;;;0.60;;
29934;SDS011;19905;53.370;-6.314;2024-02-15T04:28:41;12.77;;;2.20;;
29934;SDS011;19905;53.370;-6.314;2024-02-15T04:31:10;16.00;;;2.78;;
29934;SDS011;19905;53.370;-6.314;2024-02-15T04:33:39;10.73;;;2.63;;
29934;SDS011;19905;53.370;-6.314;2024-02-15T04:36:08;14.05;;;2.97;;
29934;SDS011;19905;53.370;-6.314;2024-02-15T04:38:36;17.15;;;3.50;;
29934;SDS011;19905;53.370;-6.314;2024-02-15T04:41:05;19.58;;;3.63;;
29934;SDS011;19905;53.370;-6.314;2024-02-15T04:43:38;15.68;;;3.65;;
29934;SDS011;19905;53.370;-6.314;2024-02-15T04:46:07;17.52;;;3.88;;
29934;SDS011;19905;53.370;-6.314;2024-02-15T04:48:36;12.35;;;3.75;;
29934;SDS011;19905;53.370;-6.314;2024-02-15T04:51:04;17.48;;;4.18;;
29934;SDS011;19905;53.370;-6.314;2024-02-15T04:53:33;16.92;;;4.47;;
29934;SDS011;19905;53.370;-6.314;2024-02-15T04:56:03;18.48;;;4.60;;
29934;SDS011;19905;53.370;-6.314;2024-02-15T04:58:38;18.20;;;4.90;;
29934;SDS011;19905;53.370;-6.314;2024-02-15T05:01:12;18.17;;;5.28;;
29934;SDS011;19905;53.370;-6.314;2024-02-15T05:03:41;22.80;;;5.68;;
29934;SDS011;19905;53.370;-6.314;2024-02-15T05:06:09;17.70;;;5.40;;
29934;SDS011;19905;53.370;-6.314;2024-02-15T05:08:39;17.80;;;5.30;;
29934;SDS011;19905;53.370;-6.314;2024-02-15T05:11:10;21.73;;;6.15;;
29934;SDS011;19905;53.370;-6.314;2024-02-15T05:13:46;22.15;;;6.03;;
29934;SDS011;19905;53.370;-6.314;2024-02-15T05:16:17;32.50;;;6.45;;
29934;SDS011;19905;53.370;-6.314;2024-02-15T05:18:46;25.48;;;5.70;;
29934;SDS011;19905;53.370;-6.314;2024-02-15T05:21:15;20.90;;;5.97;;
29934;SDS011;19905;53.370;-6.314;2024-02-15T05:23:43;22.05;;;5.70;;
29934;SDS011;19905;53.370;-6.314;2024-02-15T05:26:11;18.02;;;5.43;;
29934;SDS011;19905;53.370;-6.314;2024-02-15T05:28:42;18.10;;;5.43;;
29934;SDS011;19905;53.370;-6.314;2024-02-15T05:31:13;18.48;;;5.47;;
29934;SDS011;19905;53.370;-6.314;2024-02-15T05:33:44;12.48;;;5.07;;
29934;SDS011;19905;53.370;-6.314;2024-02-15T05:36:16;33.97;;;5.65;;
29934;SDS011;19905;53.370;-6.314;2024-02-15T05:38:46;19.80;;;5.07;;
29934;SDS011;19905;53.370;-6.314;2024-02-15T05:41:15;17.45;;;5.13;;
29934;SDS011;19905;53.370;-6.314;2024-02-15T05:43:43;16.23;;;5.20;;
29934;SDS011;19905;53.370;-6.314;2024-02-15T05:46:13;15.20;;;5.05;;
29934;SDS011;19905;53.370;-6.314;2024-02-15T05:48:42;19.20;;;5.55;;
29934;SDS011;19905;53.370;-6.314;2024-02-15T05:51:11;23.83;;;5.45;;
29934;SDS011;19905;53.370;-6.314;2024-02-15T05:53:41;21.80;;;5.32;;
29934;SDS011;19905;53.370;-6.314;2024-02-15T05:56:10;24.13;;;6.10;;
29934;SDS011;19905;53.370;-6.314;2024-02-15T05:58:39;24.50;;;5.75;;
29934;SDS011;19905;53.370;-6.314;2024-02-15T06:01:09;23.17;;;5.30;;
29934;SDS011;19905;53.370;-6.314;2024-02-15T06:03:40;18.10;;;5.72;;
29934;SDS011;19905;53.370;-6.314;2024-02-15T06:06:11;17.05;;;5.05;;
29934;SDS011;19905;53.370;-6.314;2024-02-15T06:08:39;23.15;;;6.20;;
29934;SDS011;19905;53.370;-6.314;2024-02-15T06:11:08;17.10;;;6.00;;
29934;SDS011;19905;53.370;-6.314;2024-02-15T06:13:37;16.38;;;6.53;;
29934;SDS011;19905;53.370;-6.314;2024-02-15T06:16:05;18.13;;;6.78;;
29934;SDS011;19905;53.370;-6.314;2024-02-15T06:18:36;17.73;;;6.35;;
29934;SDS011;19905;53.370;-6.314;2024-02-15T06:21:06;19.10;;;6.32;;
29934;SDS011;19905;53.370;-6.314;2024-02-15T06:23:35;17.42;;;5.95;;
29934;SDS011;19905;53.370;-6.314;2024-02-15T06:26:04;17.25;;;5.78;;
29934;SDS011;19905;53.370;-6.314;2024-02-15T06:28:33;18.60;;;5.85;;
29934;SDS011;19905;53.370;-6.314;2024-02-15T06:31:19;13.52;;;5.18;;
29934;SDS011;19905;53.370;-6.314;2024-02-15T06:34:05;16.98;;;5.15;;
29934;SDS011;19905;53.370;-6.314;2024-02-15T06:36:49;9.98;;;4.82;;
29934;SDS011;19905;53.370;-6.314;2024-02-15T06:39:35;15.70;;;5.18;;
29934;SDS011;19905;53.370;-6.314;2024-02-15T06:42:09;17.13;;;5.63;;
29934;SDS011;19905;53.370;-6.314;2024-02-15T06:44:38;16.75;;;5.63;;
29934;SDS011;19905;53.370;-6.314;2024-02-15T06:47:07;15.23;;;5.95;;
29934;SDS011;19905;53.370;-6.314;2024-02-15T06:49:37;19.77;;;6.03;;
29934;SDS011;19905;53.370;-6.314;2024-02-15T06:52:09;9.43;;;2.67;;
29934;SDS011;19905;53.370;-6.314;2024-02-15T06:54:38;8.23;;;2.50;;
29934;SDS011;19905;53.370;-6.314;2024-02-15T06:57:07;7.72;;;2.33;;
29934;SDS011;19905;53.370;-6.314;2024-02-15T06:59:35;2.60;;;1.40;;
29934;SDS011;19905;53.370;-6.314;2024-02-15T07:02:06;5.57;;;0.90;;
29934;SDS011;19905;53.370;-6.314;2024-02-15T07:04:35;0.68;;;0.57;;
29934;SDS011;19905;53.370;-6.314;2024-02-15T07:07:04;2.97;;;0.77;;
29934;SDS011;19905;53.370;-6.314;2024-02-15T07:09:34;2.60;;;0.70;;
29934;SDS011;19905;53.370;-6.314;2024-02-15T07:12:02;1.85;;;0.50;;
29934;SDS011;19905;53.370;-6.314;2024-02-15T07:14:30;0.60;;;0.40;;
29934;SDS011;19905;53.370;-6.314;2024-02-15T07:16:58;0.95;;;0.40;;
29934;SDS011;19905;53.370;-6.314;2024-02-15T07:19:27;0.30;;;0.30;;
29934;SDS011;19905;53.370;-6.314;2024-02-15T07:21:56;1.38;;;0.30;;
29934;SDS011;19905;53.370;-6.314;2024-02-15T07:24:24;0.40;;;0.20;;
29934;SDS011;19905;53.370;-6.314;2024-02-15T07:26:56;0.20;;;0.20;;
29934;SDS011;19905;53.370;-6.314;2024-02-15T07:29:24;0.45;;;0.28;;
29934;SDS011;19905;53.370;-6.314;2024-02-15T07:31:52;2.95;;;0.28;;
29934;SDS011;19905;53.370;-6.314;2024-02-15T07:34:20;0.43;;;0.30;;
29934;SDS011;19905;53.370;-6.314;2024-02-15T07:36:49;0.40;;;0.20;;
29934;SDS011;19905;53.370;-6.314;2024-02-15T07:39:18;1.05;;;0.40;;
29934;SDS011;19905;53.370;-6.314;2024-02-15T07:41:50;1.20;;;0.30;;
29934;SDS011;19905;53.370;-6.314;2024-02-15T07:44:20;0.82;;;0.30;;
29934;SDS011;19905;53.370;-6.314;2024-02-15T07:46:50;0.57;;;0.35;;
29934;SDS011;19905;53.370;-6.314;2024-02-15T07:49:18;1.98;;;0.40;;
29934;SDS011;19905;53.370;-6.314;2024-02-15T07:51:47;1.25;;;0.38;;
29934;SDS011;19905;53.370;-6.314;2024-02-15T07:54:20;1.05;;;0.35;;
29934;SDS011;19905;53.370;-6.314;2024-02-15T07:56:48;3.17;;;0.32;;
29934;SDS011;19905;53.370;-6.314;2024-02-15T07:59:17;2.05;;;0.40;;
29934;SDS011;19905;53.370;-6.314;2024-02-15T08:01:47;0.88;;;0.35;;
29934;SDS011;19905;53.370;-6.314;2024-02-15T08:04:17;1.58;;;0.40;;
29934;SDS011;19905;53.370;-6.314;2024-02-15T08:06:47;1.48;;;0.40;;
29934;SDS011;19905;53.370;-6.314;2024-02-15T08:09:17;0.40;;;0.20;;
29934;SDS011;19905;53.370;-6.314;2024-02-15T08:11:48;1.05;;;0.30;;
29934;SDS011;19905;53.370;-6.314;2024-02-15T08:14:17;0.70;;;0.38;;
29934;SDS011;19905;53.370;-6.314;2024-02-15T08:16:48;1.10;;;0.38;;
29934;SDS011;19905;53.370;-6.314;2024-02-15T08:19:17;0.30;;;0.30;;
29934;SDS011;19905;53.370;-6.314;2024-02-15T08:21:47;2.40;;;0.40;;
29934;SDS011;19905;53.370;-6.314;2024-02-15T08:24:17;0.47;;;0.30;;
29934;SDS011;19905;53.370;-6.314;2024-02-15T08:26:46;3.58;;;0.40;;
29934;SDS011;19905;53.370;-6.314;2024-02-15T08:29:15;1.58;;;0.57;;
29934;SDS011;19905;53.370;-6.314;2024-02-15T08:31:43;1.98;;;0.43;;
29934;SDS011;19905;53.370;-6.314;2024-02-15T08:34:13;0.68;;;0.40;;
29934;SDS011;19905;53.370;-6.314;2024-02-15T08:36:42;1.70;;;0.60;;
29934;SDS011;19905;53.370;-6.314;2024-02-15T08:39:11;2.42;;;0.45;;
29934;SDS011;19905;53.370;-6.314;2024-02-15T08:41:40;4.88;;;0.85;;
29934;SDS011;19905;53.370;-6.314;2024-02-15T08:44:08;3.40;;;1.00;;
29934;SDS011;19905;53.370;-6.314;2024-02-15T08:46:42;2.58;;;1.10;;
29934;SDS011;19905;53.370;-6.314;2024-02-15T08:49:10;2.28;;;0.70;;
29934;SDS011;19905;53.370;-6.314;2024-02-15T08:51:42;0.73;;;0.40;;
29934;SDS011;19905;53.370;-6.314;2024-02-15T08:54:10;3.90;;;2.40;;
29934;SDS011;19905;53.370;-6.314;2024-02-15T08:56:39;4.40;;;1.85;;
29934;SDS011;19905;53.370;-6.314;2024-02-15T08:59:08;1.75;;;0.82;;
29934;SDS011;19905;53.370;-6.314;2024-02-15T09:01:36;1.40;;;0.73;;
29934;SDS011;19905;53.370;-6.314;2024-02-15T09:04:05;1.98;;;0.52;;
29934;SDS011;19905;53.370;-6.314;2024-02-15T09:06:33;2.90;;;0.50;;
29934;SDS011;19905;53.370;-6.314;2024-02-15T09:09:04;2.22;;;0.60;;
29934;SDS011;19905;53.370;-6.314;2024-02-15T09:11:32;1.58;;;0.50;;
29934;SDS011;19905;53.370;-6.314;2024-02-15T09:14:01;1.33;;;0.52;;
29934;SDS011;19905;53.370;-6.314;2024-02-15T09:16:30;1.27;;;0.57;;
29934;SDS011;19905;53.370;-6.314;2024-02-15T09:18:59;1.30;;;0.60;;
29934;SDS011;19905;53.370;-6.314;2024-02-15T09:21:29;3.38;;;0.63;;
29934;SDS011;19905;53.370;-6.314;2024-02-15T09:23:57;0.90;;;0.50;;
29934;SDS011;19905;53.370;-6.314;2024-02-15T09:26:27;1.83;;;0.57;;
29934;SDS011;19905;53.370;-6.314;2024-02-15T09:28:55;2.67;;;0.60;;
29934;SDS011;19905;53.370;-6.314;2024-02-15T09:31:24;3.83;;;0.68;;
29934;SDS011;19905;53.370;-6.314;2024-02-15T09:33:53;1.48;;;0.40;;
29934;SDS011;19905;53.370;-6.314;2024-02-15T09:36:21;0.82;;;0.40;;
29934;SDS011;19905;53.370;-6.314;2024-02-15T09:38:49;0.85;;;0.35;;
29934;SDS011;19905;53.370;-6.314;2024-02-15T09:41:18;2.28;;;0.50;;
29934;SDS011;19905;53.370;-6.314;2024-02-15T09:43:50;1.05;;;0.45;;
29934;SDS011;19905;53.370;-6.314;2024-02-15T09:46:22;1.13;;;0.40;;
29934;SDS011;19905;53.370;-6.314;2024-02-15T09:48:50;1.25;;;0.50;;
29934;SDS011;19905;53.370;-6.314;2024-02-15T09:51:25;0.85;;;0.45;;
29934;SDS011;19905;53.370;-6.314;2024-02-15T09:53:55;1.73;;;0.45;;
29934;SDS011;19905;53.370;-6.314;2024-02-15T09:56:25;1.02;;;0.30;;
29934;SDS011;19905;53.370;-6.314;2024-02-15T09:58:57;2.80;;;0.60;;
29934;SDS011;19905;53.370;-6.314;2024-02-15T10:01:26;0.85;;;0.50;;
29934;SDS011;19905;53.370;-6.314;2024-02-15T10:03:55;1.45;;;0.70;;
29934;SDS011;19905;53.370;-6.314;2024-02-15T10:06:27;2.97;;;1.08;;
29934;SDS011;19905;53.370;-6.314;2024-02-15T10:08:59;4.80;;;1.00;;
29934;SDS011;19905;53.370;-6.314;2024-02-15T10:11:52;2.80;;;0.70;;
29934;SDS011;19905;53.370;-6.314;2024-02-15T10:14:25;5.35;;;0.60;;
29934;SDS011;19905;53.370;-6.314;2024-02-15T10:16:53;1.95;;;0.80;;
29934;SDS011;19905;53.370;-6.314;2024-02-15T10:19:22;1.48;;;0.50;;
29934;SDS011;19905;53.370;-6.314;2024-02-15T10:21:52;8.93;;;0.63;;
29934;SDS011;19905;53.370;-6.314;2024-02-15T10:24:23;1.77;;;0.60;;
29934;SDS011;19905;53.370;-6.314;2024-02-15T10:26:59;1.38;;;0.60;;
29934;SDS011;19905;53.370;-6.314;2024-02-15T10:29:33;5.55;;;0.50;;
29934;SDS011;19905;53.370;-6.314;2024-02-15T10:32:03;3.28;;;0.55;;
29934;SDS011;19905;53.370;-6.314;2024-02-15T10:34:43;1.40;;;0.50;;
29934;SDS011;19905;53.370;-6.314;2024-02-15T10:37:13;2.17;;;0.80;;
29934;SDS011;19905;53.370;-6.314;2024-02-15T10:39:43;2.03;;;0.52;;
29934;SDS011;19905;53.370;-6.314;2024-02-15T10:42:12;3.30;;;0.20;;
29934;SDS011;19905;53.370;-6.314;2024-02-15T10:44:44;0.10;;;0.10;;
29934;SDS011;19905;53.370;-6.314;2024-02-15T10:47:13;0.10;;;0.10;;
29934;SDS011;19905;53.370;-6.314;2024-02-15T10:49:42;0.10;;;0.10;;
29934;SDS011;19905;53.370;-6.314;2024-02-15T10:52:14;0.10;;;0.10;;
29934;SDS011;19905;53.370;-6.314;2024-02-15T10:54:52;0.10;;;0.10;;
29934;SDS011;19905;53.370;-6.314;2024-02-15T10:57:21;0.10;;;0.10;;
29934;SDS011;19905;53.370;-6.314;2024-02-15T10:59:55;0.10;;;0.10;;
29934;SDS011;19905;53.370;-6.314;2024-02-15T11:02:28;0.10;;;0.10;;
29934;SDS011;19905;53.370;-6.314;2024-02-15T11:05:03;0.10;;;0.10;;
29934;SDS011;19905;53.370;-6.314;2024-02-15T11:07:37;0.10;;;0.10;;
29934;SDS011;19905;53.370;-6.314;2024-02-15T11:10:06;0.10;;;0.10;;
29934;SDS011;19905;53.370;-6.314;2024-02-15T11:12:38;0.10;;;0.10;;
29934;SDS011;19905;53.370;-6.314;2024-02-15T11:15:10;0.10;;;0.10;;
29934;SDS011;19905;53.370;-6.314;2024-02-15T11:17:45;0.10;;;0.10;;
29934;SDS011;19905;53.370;-6.314;2024-02-15T11:23:05;0.10;;;0.10;;
29934;SDS011;19905;53.370;-6.314;2024-02-15T11:25:34;0.10;;;0.10;;
29934;SDS011;19905;53.370;-6.314;2024-02-15T11:30:48;0.10;;;0.10;;
29934;SDS011;19905;53.370;-6.314;2024-02-15T11:33:24;0.10;;;0.10;;
29934;SDS011;19905;53.370;-6.314;2024-02-15T11:36:05;0.57;;;0.57;;
29934;SDS011;19905;53.370;-6.314;2024-02-15T11:38:35;0.10;;;0.10;;
29934;SDS011;19905;53.370;-6.314;2024-02-15T11:41:05;0.10;;;0.10;;
29934;SDS011;19905;53.370;-6.314;2024-02-15T11:43:45;0.20;;;0.20;;
29934;SDS011;19905;53.370;-6.314;2024-02-15T11:46:18;0.63;;;0.30;;
29934;SDS011;19905;53.370;-6.314;2024-02-15T11:48:47;0.20;;;0.20;;
29934;SDS011;19905;53.370;-6.314;2024-02-15T11:51:26;0.30;;;0.30;;
29934;SDS011;19905;53.370;-6.314;2024-02-15T11:54:04;0.10;;;0.10;;
29934;SDS011;19905;53.370;-6.314;2024-02-15T11:59:22;0.20;;;0.20;;
29934;SDS011;19905;53.370;-6.314;2024-02-15T12:02:11;0.15;;;0.15;;
29934;SDS011;19905;53.370;-6.314;2024-02-15T12:04:56;0.40;;;0.40;;
29934;SDS011;19905;53.370;-6.314;2024-02-15T12:07:42;0.75;;;0.57;;
29934;SDS011;19905;53.370;-6.314;2024-02-15T12:10:43;0.20;;;0.20;;
29934;SDS011;19905;53.370;-6.314;2024-02-15T12:13:29;0.10;;;0.10;;
29934;SDS011;19905;53.370;-6.314;2024-02-15T12:16:15;0.10;;;0.10;;
29934;SDS011;19905;53.370;-6.314;2024-02-15T12:19:02;0.40;;;0.40;;
29934;SDS011;19905;53.370;-6.314;2024-02-15T12:21:32;0.22;;;0.20;;
29934;SDS011;19905;53.370;-6.314;2024-02-15T12:24:00;0.20;;;0.20;;
29934;SDS011;19905;53.370;-6.314;2024-02-15T12:26:32;0.20;;;0.20;;
29934;SDS011;19905;53.370;-6.314;2024-02-15T12:29:02;0.15;;;0.15;;
29934;SDS011;19905;53.370;-6.314;2024-02-15T12:31:33;0.05;;;0.05;;
29934;SDS011;19905;53.370;-6.314;2024-02-15T12:34:06;0.10;;;0.10;;
29934;SDS011;19905;53.370;-6.314;2024-02-15T12:36:35;0.15;;;0.15;;
29934;SDS011;19905;53.370;-6.314;2024-02-15T12:39:06;0.15;;;0.15;;
29934;SDS011;19905;53.370;-6.314;2024-02-15T12:41:39;0.10;;;0.10;;
29934;SDS011;19905;53.370;-6.314;2024-02-15T12:44:08;0.10;;;0.10;;
29934;SDS011;19905;53.370;-6.314;2024-02-15T12:46:37;0.10;;;0.10;;
29934;SDS011;19905;53.370;-6.314;2024-02-15T12:49:12;0.20;;;0.20;;
29934;SDS011;19905;53.370;-6.314;2024-02-15T12:51:50;0.10;;;0.10;;
29934;SDS011;19905;53.370;-6.314;2024-02-15T12:54:19;0.20;;;0.20;;
29934;SDS011;19905;53.370;-6.314;2024-02-15T12:56:49;0.10;;;0.10;;
29934;SDS011;19905;53.370;-6.314;2024-02-15T12:59:18;0.13;;;0.13;;
29934;SDS011;19905;53.370;-6.314;2024-02-15T13:01:47;0.10;;;0.10;;
29934;SDS011;19905;53.370;-6.314;2024-02-15T13:04:24;0.63;;;0.40;;
29934;SDS011;19905;53.370;-6.314;2024-02-15T13:06:53;0.10;;;0.10;;
29934;SDS011;19905;53.370;-6.314;2024-02-15T13:09:21;0.10;;;0.10;;
29934;SDS011;19905;53.370;-6.314;2024-02-15T13:11:50;0.13;;;0.13;;
29934;SDS011;19905;53.370;-6.314;2024-02-15T13:14:20;0.00;;;0.00;;
29934;SDS011;19905;53.370;-6.314;2024-02-15T13:16:49;0.05;;;0.05;;
29934;SDS011;19905;53.370;-6.314;2024-02-15T13:19:18;0.40;;;0.40;;
29934;SDS011;19905;53.370;-6.314;2024-02-15T13:21:49;0.10;;;0.10;;
29934;SDS011;19905;53.370;-6.314;2024-02-15T13:24:19;0.10;;;0.10;;
29934;SDS011;19905;53.370;-6.314;2024-02-15T13:26:53;0.10;;;0.10;;
29934;SDS011;19905;53.370;-6.314;2024-02-15T13:29:25;0.10;;;0.10;;
29934;SDS011;19905;53.370;-6.314;2024-02-15T13:31:53;1.55;;;0.73;;
29934;SDS011;19905;53.370;-6.314;2024-02-15T13:34:23;0.10;;;0.10;;
29934;SDS011;19905;53.370;-6.314;2024-02-15T13:36:53;0.10;;;0.10;;
29934;SDS011;19905;53.370;-6.314;2024-02-15T13:39:21;0.10;;;0.10;;
29934;SDS011;19905;53.370;-6.314;2024-02-15T13:41:50;0.10;;;0.10;;
29934;SDS011;19905;53.370;-6.314;2024-02-15T13:44:19;0.30;;;0.30;;
29934;SDS011;19905;53.370;-6.314;2024-02-15T13:46:47;0.40;;;0.30;;
29934;SDS011;19905;53.370;-6.314;2024-02-15T13:49:17;0.10;;;0.10;;
29934;SDS011;19905;53.370;-6.314;2024-02-15T13:51:59;0.20;;;0.20;;
29934;SDS011;19905;53.370;-6.314;2024-02-15T13:54:29;2.90;;;1.00;;
29934;SDS011;19905;53.370;-6.314;2024-02-15T13:56:58;0.10;;;0.10;;
29934;SDS011;19905;53.370;-6.314;2024-02-15T13:59:28;0.85;;;0.50;;
29934;SDS011;19905;53.370;-6.314;2024-02-15T14:01:56;0.10;;;0.10;;
29934;SDS011;19905;53.370;-6.314;2024-02-15T14:04:25;0.10;;;0.10;;
29934;SDS011;19905;53.370;-6.314;2024-02-15T14:06:54;0.20;;;0.20;;
29934;SDS011;19905;53.370;-6.314;2024-02-15T14:09:26;0.10;;;0.10;;
29934;SDS011;19905;53.370;-6.314;2024-02-15T14:11:55;0.10;;;0.10;;
29934;SDS011;19905;53.370;-6.314;2024-02-15T14:14:25;0.20;;;0.20;;
29934;SDS011;19905;53.370;-6.314;2024-02-15T14:16:53;0.10;;;0.10;;
29934;SDS011;19905;53.370;-6.314;2024-02-15T14:19:22;0.00;;;0.00;;
29934;SDS011;19905;53.370;-6.314;2024-02-15T14:21:53;0.10;;;0.10;;
29934;SDS011;19905;53.370;-6.314;2024-02-15T14:24:22;0.75;;;0.57;;
29934;SDS011;19905;53.370;-6.314;2024-02-15T14:26:53;0.47;;;0.47;;
29934;SDS011;19905;53.370;-6.314;2024-02-15T14:29:22;0.10;;;0.10;;
29934;SDS011;19905;53.370;-6.314;2024-02-15T14:31:53;0.10;;;0.10;;
29934;SDS011;19905;53.370;-6.314;2024-02-15T14:34:38;0.10;;;0.10;;
29934;SDS011;19905;53.370;-6.314;2024-02-15T14:37:08;0.20;;;0.20;;
29934;SDS011;19905;53.370;-6.314;2024-02-15T14:39:36;0.10;;;0.10;;
29934;SDS011;19905;53.370;-6.314;2024-02-15T14:42:06;0.20;;;0.20;;
29934;SDS011;19905;53.370;-6.314;2024-02-15T14:44:37;0.25;;;0.25;;
29934;SDS011;19905;53.370;-6.314;2024-02-15T14:47:06;0.05;;;0.05;;
29934;SDS011;19905;53.370;-6.314;2024-02-15T14:49:35;0.10;;;0.10;;
29934;SDS011;19905;53.370;-6.314;2024-02-15T14:52:04;0.10;;;0.10;;
29934;SDS011;19905;53.370;-6.314;2024-02-15T14:54:32;0.20;;;0.20;;
29934;SDS011;19905;53.370;-6.314;2024-02-15T14:57:03;0.25;;;0.25;;